Orland, CA (95963)

9:41 PM PDT on August 30, 2014 (GMT -0700)
MOORE FARMS | Change Station
CLOSE
Current Station
Personal Weather Station
Location: Orland, CA
Elevation: 200 ft
Nearby Weather Stations

Elev 200 ft 39.78 °N, 122.10 °W | Updated 25 seconds ago

Clear
Clear
74.1 °F
Feels Like 77 °F
N
4.0
Wind Variable Wind from NNW
Gusts 4.3 mph

Today
High -- | Low -- °F
--% Chance of Precip.
Yesterday
High -- | Low -- °F
Precip. -- in
6:35 AM 7:42 PM
Waxing Crescent, 27% visible
Pressure 29.77 in
Visibility 10.0 miles
Clouds Clear
Heat Index 77 °F
Dew Point 50 °F
Humidity 42%
Rainfall 0.00 in
Snow Depth Not available.
UV 0 out of 12
Pollen 9.10 out of 12
Ozone Good
Flu Activity Not available.
METAR KCIC 310435Z AUTO 04005KT 10SM CLR 28/05 A2977 RMK AO1

More Conditions Fewer Conditions

Pressure 29.77 in
Visibility 10.0 miles
Clouds Clear
Heat Index 77 °F
Dew Point 50 °F
Humidity 42%
Rainfall 0.00 in
Snow Depth Not available.
UV 0 out of 12
Pollen 9.10 out of 12
Ozone Good
Flu Activity Not available.
METAR KCIC 310435Z AUTO 04005KT 10SM CLR 28/05 A2977 RMK AO1

More Conditions Fewer Conditions

10-Day Weather Forecast

Almanac

Astronomy

Aug. 30, 2014 Rise Set
Actual Time 6:35 AM PDT 7:42 PM PDT
Civil Twilight 6:07 AM PDT 8:10 PM PDT
Nautical Twilight 5:34 AM PDT 8:43 PM PDT
Astronomical Twilight 4:59 AM PDT 9:18 PM PDT
Moon 11:27 AM PDT (8/30) 10:21 PM PDT (8/30)
Length of Visible Light 14h 03m
Length of Day
13h 07m
Tomorrow will be 2m 29s shorter.
Waxing Crescent, 27% of the Moon is Illuminated
Aug 31
Waxing Crescent
Sep 2
First Quarter
Sep 8
Full
Sep 15
Last Quarter
Sep 24
New

Today's Extremes

State Highs State Lows

Community

WunderPhotos

Upload Photos

1,748,783 photos uploaded!

Nearby

Air Quality

  Air Quality AQ Index Pollutant
Yesterday Moderate
OZONE
Current Good
OZONE
Saturday Moderate
OZONE
Sunday Moderate
OZONE
Monday Moderate
OZONE
Tuesday Moderate
OZONE
Wednesday Moderate
OZONE

Snow Depth

Station Depth Elevation
CSS Lab 2 in 6900 ft
Tahoe City Cross 0 in 6750 ft
Rubicon #2 0 in 7500 ft
Fallen Leaf 0 in 6300 ft
Adin Mountain 0 in 6200 ft

Earthquake Activity

City Distance Mag. Time & Date
No recent earthquake activity has been reported nearby.
Minimum magnitude displayed is 2.5.

Coastal Water Temperatures

Place Temperature
No Stations Reporting

Nearby Weather Stations